sensor_id;sensor_type;location;lat;lon;timestamp;P1;durP1;ratioP1;P2;durP2;ratioP2
63975;SDS011;50167;47.958;21.780;2023-01-29T00:01:53;31.40;;;16.35;;
63975;SDS011;50167;47.958;21.780;2023-01-29T00:04:20;42.93;;;19.75;;
63975;SDS011;50167;47.958;21.780;2023-01-29T00:06:47;37.63;;;18.73;;
63975;SDS011;50167;47.958;21.780;2023-01-29T00:09:13;44.47;;;21.90;;
63975;SDS011;50167;47.958;21.780;2023-01-29T00:11:40;42.37;;;19.77;;
63975;SDS011;50167;47.958;21.780;2023-01-29T00:14:06;41.83;;;19.57;;
63975;SDS011;50167;47.958;21.780;2023-01-29T00:16:33;41.77;;;18.63;;
63975;SDS011;50167;47.958;21.780;2023-01-29T00:19:02;40.13;;;19.17;;
63975;SDS011;50167;47.958;21.780;2023-01-29T00:21:29;35.30;;;16.70;;
63975;SDS011;50167;47.958;21.780;2023-01-29T00:23:56;42.43;;;20.75;;
63975;SDS011;50167;47.958;21.780;2023-01-29T00:26:24;43.40;;;18.30;;
63975;SDS011;50167;47.958;21.780;2023-01-29T00:28:51;47.25;;;19.48;;
63975;SDS011;50167;47.958;21.780;2023-01-29T00:31:21;44.77;;;19.30;;
63975;SDS011;50167;47.958;21.780;2023-01-29T00:33:50;36.23;;;16.90;;
63975;SDS011;50167;47.958;21.780;2023-01-29T00:36:17;32.70;;;15.28;;
63975;SDS011;50167;47.958;21.780;2023-01-29T00:38:46;48.43;;;22.07;;
63975;SDS011;50167;47.958;21.780;2023-01-29T00:41:14;40.77;;;17.90;;
63975;SDS011;50167;47.958;21.780;2023-01-29T00:43:59;49.83;;;19.13;;
63975;SDS011;50167;47.958;21.780;2023-01-29T00:46:45;34.17;;;16.57;;
63975;SDS011;50167;47.958;21.780;2023-01-29T00:49:11;39.23;;;19.48;;
63975;SDS011;50167;47.958;21.780;2023-01-29T00:51:37;34.48;;;17.45;;
63975;SDS011;50167;47.958;21.780;2023-01-29T00:54:04;42.30;;;19.73;;
63975;SDS011;50167;47.958;21.780;2023-01-29T00:56:32;40.00;;;19.83;;
63975;SDS011;50167;47.958;21.780;2023-01-29T00:59:00;42.90;;;18.13;;
63975;SDS011;50167;47.958;21.780;2023-01-29T01:01:28;47.05;;;20.35;;
63975;SDS011;50167;47.958;21.780;2023-01-29T01:04:13;39.60;;;18.48;;
63975;SDS011;50167;47.958;21.780;2023-01-29T01:06:39;37.65;;;18.00;;
63975;SDS011;50167;47.958;21.780;2023-01-29T01:09:08;31.50;;;14.87;;
63975;SDS011;50167;47.958;21.780;2023-01-29T01:11:54;33.03;;;14.00;;
63975;SDS011;50167;47.958;21.780;2023-01-29T01:14:21;32.50;;;16.23;;
63975;SDS011;50167;47.958;21.780;2023-01-29T01:16:47;32.47;;;16.53;;
63975;SDS011;50167;47.958;21.780;2023-01-29T01:19:14;29.93;;;15.30;;
63975;SDS011;50167;47.958;21.780;2023-01-29T01:21:41;36.23;;;17.47;;
63975;SDS011;50167;47.958;21.780;2023-01-29T01:24:13;47.90;;;19.23;;
63975;SDS011;50167;47.958;21.780;2023-01-29T01:26:39;29.13;;;15.53;;
63975;SDS011;50167;47.958;21.780;2023-01-29T01:29:06;38.10;;;17.73;;
63975;SDS011;50167;47.958;21.780;2023-01-29T01:31:33;28.87;;;13.93;;
63975;SDS011;50167;47.958;21.780;2023-01-29T01:33:59;31.77;;;16.93;;
63975;SDS011;50167;47.958;21.780;2023-01-29T01:36:25;30.70;;;16.07;;
63975;SDS011;50167;47.958;21.780;2023-01-29T01:38:51;33.50;;;17.23;;
63975;SDS011;50167;47.958;21.780;2023-01-29T01:41:19;34.73;;;16.40;;
63975;SDS011;50167;47.958;21.780;2023-01-29T01:43:51;33.30;;;16.73;;
63975;SDS011;50167;47.958;21.780;2023-01-29T01:46:22;31.20;;;16.47;;
63975;SDS011;50167;47.958;21.780;2023-01-29T01:48:53;30.97;;;15.77;;
63975;SDS011;50167;47.958;21.780;2023-01-29T01:51:25;34.47;;;16.60;;
63975;SDS011;50167;47.958;21.780;2023-01-29T01:54:00;33.43;;;15.67;;
63975;SDS011;50167;47.958;21.780;2023-01-29T01:56:34;33.33;;;16.02;;
63975;SDS011;50167;47.958;21.780;2023-01-29T01:59:10;28.93;;;14.53;;
63975;SDS011;50167;47.958;21.780;2023-01-29T02:01:36;33.13;;;15.87;;
63975;SDS011;50167;47.958;21.780;2023-01-29T02:04:12;26.30;;;12.80;;
63975;SDS011;50167;47.958;21.780;2023-01-29T02:06:57;26.17;;;12.98;;
63975;SDS011;50167;47.958;21.780;2023-01-29T02:09:50;31.63;;;15.53;;
63975;SDS011;50167;47.958;21.780;2023-01-29T02:12:20;38.50;;;16.87;;
63975;SDS011;50167;47.958;21.780;2023-01-29T02:14:46;31.13;;;15.20;;
63975;SDS011;50167;47.958;21.780;2023-01-29T02:17:14;30.67;;;16.17;;
63975;SDS011;50167;47.958;21.780;2023-01-29T02:31:05;35.10;;;16.50;;
63975;SDS011;50167;47.958;21.780;2023-01-29T02:37:19;32.63;;;15.10;;
63975;SDS011;50167;47.958;21.780;2023-01-29T02:39:56;33.00;;;15.63;;
63975;SDS011;50167;47.958;21.780;2023-01-29T02:42:39;37.00;;;14.80;;
63975;SDS011;50167;47.958;21.780;2023-01-29T02:45:23;34.20;;;18.30;;
63975;SDS011;50167;47.958;21.780;2023-01-29T02:47:59;31.17;;;12.97;;
63975;SDS011;50167;47.958;21.780;2023-01-29T02:50:36;31.53;;;15.07;;
63975;SDS011;50167;47.958;21.780;2023-01-29T02:58:41;31.77;;;16.70;;
63975;SDS011;50167;47.958;21.780;2023-01-29T03:01:49;28.90;;;16.03;;
63975;SDS011;50167;47.958;21.780;2023-01-29T03:03:56;26.25;;;13.48;;
63975;SDS011;50167;47.958;21.780;2023-01-29T03:09:03;26.87;;;13.73;;
63975;SDS011;50167;47.958;21.780;2023-01-29T03:11:37;18.85;;;10.03;;
63975;SDS011;50167;47.958;21.780;2023-01-29T03:14:08;25.07;;;11.43;;
63975;SDS011;50167;47.958;21.780;2023-01-29T03:16:48;22.57;;;12.10;;
63975;SDS011;50167;47.958;21.780;2023-01-29T03:19:19;23.60;;;11.37;;
63975;SDS011;50167;47.958;21.780;2023-01-29T03:21:59;25.30;;;12.90;;
63975;SDS011;50167;47.958;21.780;2023-01-29T03:27:34;23.97;;;11.70;;
63975;SDS011;50167;47.958;21.780;2023-01-29T03:30:18;29.00;;;13.58;;
63975;SDS011;50167;47.958;21.780;2023-01-29T03:33:05;25.70;;;12.60;;
63975;SDS011;50167;47.958;21.780;2023-01-29T03:35:35;27.00;;;13.47;;
63975;SDS011;50167;47.958;21.780;2023-01-29T03:38:06;21.87;;;11.50;;
63975;SDS011;50167;47.958;21.780;2023-01-29T03:43:30;23.77;;;11.17;;
63975;SDS011;50167;47.958;21.780;2023-01-29T03:49:10;25.17;;;12.40;;
63975;SDS011;50167;47.958;21.780;2023-01-29T04:00:19;25.37;;;12.17;;
63975;SDS011;50167;47.958;21.780;2023-01-29T04:05:56;24.63;;;12.90;;
63975;SDS011;50167;47.958;21.780;2023-01-29T04:08:35;21.40;;;10.93;;
63975;SDS011;50167;47.958;21.780;2023-01-29T04:11:15;19.70;;;11.33;;
63975;SDS011;50167;47.958;21.780;2023-01-29T04:13:45;22.40;;;12.23;;
63975;SDS011;50167;47.958;21.780;2023-01-29T04:16:13;22.47;;;12.70;;
63975;SDS011;50167;47.958;21.780;2023-01-29T04:18:47;23.07;;;11.53;;
63975;SDS011;50167;47.958;21.780;2023-01-29T04:21:14;26.43;;;11.77;;
63975;SDS011;50167;47.958;21.780;2023-01-29T04:23:41;21.77;;;11.93;;
63975;SDS011;50167;47.958;21.780;2023-01-29T04:26:19;24.03;;;11.83;;
63975;SDS011;50167;47.958;21.780;2023-01-29T04:29:13;21.23;;;11.23;;
63975;SDS011;50167;47.958;21.780;2023-01-29T04:32:09;21.50;;;11.40;;
63975;SDS011;50167;47.958;21.780;2023-01-29T04:40:26;21.17;;;9.60;;
63975;SDS011;50167;47.958;21.780;2023-01-29T04:43:24;19.00;;;10.43;;
63975;SDS011;50167;47.958;21.780;2023-01-29T04:51:23;16.53;;;9.30;;
63975;SDS011;50167;47.958;21.780;2023-01-29T04:56:34;18.93;;;8.00;;
63975;SDS011;50167;47.958;21.780;2023-01-29T04:59:05;16.70;;;8.00;;
63975;SDS011;50167;47.958;21.780;2023-01-29T05:01:34;14.03;;;8.00;;
63975;SDS011;50167;47.958;21.780;2023-01-29T05:04:04;12.60;;;6.37;;
63975;SDS011;50167;47.958;21.780;2023-01-29T05:06:34;16.20;;;8.57;;
63975;SDS011;50167;47.958;21.780;2023-01-29T05:09:03;20.63;;;8.40;;
63975;SDS011;50167;47.958;21.780;2023-01-29T05:11:29;15.53;;;8.33;;
63975;SDS011;50167;47.958;21.780;2023-01-29T05:13:58;17.10;;;9.37;;
63975;SDS011;50167;47.958;21.780;2023-01-29T05:16:27;16.77;;;8.87;;
63975;SDS011;50167;47.958;21.780;2023-01-29T05:19:03;15.67;;;8.23;;
63975;SDS011;50167;47.958;21.780;2023-01-29T05:21:29;15.63;;;8.33;;
63975;SDS011;50167;47.958;21.780;2023-01-29T05:24:07;16.27;;;7.77;;
63975;SDS011;50167;47.958;21.780;2023-01-29T05:26:36;16.23;;;8.40;;
63975;SDS011;50167;47.958;21.780;2023-01-29T05:29:21;15.57;;;7.73;;
63975;SDS011;50167;47.958;21.780;2023-01-29T05:31:48;14.20;;;6.80;;
63975;SDS011;50167;47.958;21.780;2023-01-29T05:34:16;16.83;;;7.80;;
63975;SDS011;50167;47.958;21.780;2023-01-29T05:36:43;14.53;;;7.50;;
63975;SDS011;50167;47.958;21.780;2023-01-29T05:39:09;16.37;;;8.57;;
63975;SDS011;50167;47.958;21.780;2023-01-29T05:41:35;14.33;;;7.20;;
63975;SDS011;50167;47.958;21.780;2023-01-29T05:44:01;19.13;;;9.77;;
63975;SDS011;50167;47.958;21.780;2023-01-29T05:46:27;16.00;;;8.50;;
63975;SDS011;50167;47.958;21.780;2023-01-29T05:48:53;17.33;;;8.27;;
63975;SDS011;50167;47.958;21.780;2023-01-29T05:51:20;15.83;;;7.77;;
63975;SDS011;50167;47.958;21.780;2023-01-29T05:53:46;13.20;;;7.90;;
63975;SDS011;50167;47.958;21.780;2023-01-29T05:56:12;14.43;;;7.53;;
63975;SDS011;50167;47.958;21.780;2023-01-29T05:58:38;15.97;;;8.27;;
63975;SDS011;50167;47.958;21.780;2023-01-29T06:01:08;14.00;;;8.07;;
63975;SDS011;50167;47.958;21.780;2023-01-29T06:03:39;16.03;;;7.03;;
63975;SDS011;50167;47.958;21.780;2023-01-29T06:06:05;16.93;;;8.73;;
63975;SDS011;50167;47.958;21.780;2023-01-29T06:08:32;13.73;;;7.27;;
63975;SDS011;50167;47.958;21.780;2023-01-29T06:10:58;13.07;;;6.30;;
63975;SDS011;50167;47.958;21.780;2023-01-29T06:13:25;16.87;;;8.67;;
63975;SDS011;50167;47.958;21.780;2023-01-29T06:15:51;14.77;;;7.83;;
63975;SDS011;50167;47.958;21.780;2023-01-29T06:18:17;15.57;;;8.10;;
63975;SDS011;50167;47.958;21.780;2023-01-29T06:20:44;13.67;;;7.40;;
63975;SDS011;50167;47.958;21.780;2023-01-29T06:23:10;17.77;;;8.63;;
63975;SDS011;50167;47.958;21.780;2023-01-29T06:25:36;12.37;;;6.57;;
63975;SDS011;50167;47.958;21.780;2023-01-29T06:28:03;14.00;;;6.10;;
63975;SDS011;50167;47.958;21.780;2023-01-29T06:30:29;13.23;;;7.63;;
63975;SDS011;50167;47.958;21.780;2023-01-29T06:32:56;12.83;;;6.10;;
63975;SDS011;50167;47.958;21.780;2023-01-29T06:35:24;9.17;;;5.70;;
63975;SDS011;50167;47.958;21.780;2023-01-29T06:37:50;13.47;;;6.50;;
63975;SDS011;50167;47.958;21.780;2023-01-29T06:40:16;11.53;;;6.77;;
63975;SDS011;50167;47.958;21.780;2023-01-29T06:42:43;10.60;;;6.30;;
63975;SDS011;50167;47.958;21.780;2023-01-29T06:45:09;12.37;;;6.03;;
63975;SDS011;50167;47.958;21.780;2023-01-29T06:47:36;9.00;;;5.43;;
63975;SDS011;50167;47.958;21.780;2023-01-29T06:50:02;12.13;;;7.30;;
63975;SDS011;50167;47.958;21.780;2023-01-29T06:52:29;10.17;;;5.50;;
63975;SDS011;50167;47.958;21.780;2023-01-29T06:54:55;9.67;;;5.43;;
63975;SDS011;50167;47.958;21.780;2023-01-29T06:57:21;11.33;;;6.00;;
63975;SDS011;50167;47.958;21.780;2023-01-29T06:59:48;10.40;;;5.73;;
63975;SDS011;50167;47.958;21.780;2023-01-29T07:02:14;8.07;;;3.97;;
63975;SDS011;50167;47.958;21.780;2023-01-29T07:04:40;12.63;;;6.37;;
63975;SDS011;50167;47.958;21.780;2023-01-29T07:07:07;8.60;;;4.57;;
63975;SDS011;50167;47.958;21.780;2023-01-29T07:09:39;10.93;;;6.83;;
63975;SDS011;50167;47.958;21.780;2023-01-29T07:12:06;8.10;;;4.90;;
63975;SDS011;50167;47.958;21.780;2023-01-29T07:14:34;10.67;;;5.47;;
63975;SDS011;50167;47.958;21.780;2023-01-29T07:17:00;11.33;;;6.30;;
63975;SDS011;50167;47.958;21.780;2023-01-29T07:19:27;10.07;;;5.83;;
63975;SDS011;50167;47.958;21.780;2023-01-29T07:21:54;8.90;;;4.20;;
63975;SDS011;50167;47.958;21.780;2023-01-29T07:24:21;10.97;;;6.27;;
63975;SDS011;50167;47.958;21.780;2023-01-29T07:26:47;13.37;;;7.93;;
63975;SDS011;50167;47.958;21.780;2023-01-29T07:29:13;13.30;;;7.33;;
63975;SDS011;50167;47.958;21.780;2023-01-29T07:31:39;17.53;;;10.37;;
63975;SDS011;50167;47.958;21.780;2023-01-29T07:34:05;14.57;;;8.20;;
63975;SDS011;50167;47.958;21.780;2023-01-29T07:36:31;10.17;;;5.73;;
63975;SDS011;50167;47.958;21.780;2023-01-29T07:38:57;10.83;;;5.90;;
63975;SDS011;50167;47.958;21.780;2023-01-29T07:41:24;12.97;;;7.00;;
63975;SDS011;50167;47.958;21.780;2023-01-29T07:43:50;10.07;;;6.37;;
63975;SDS011;50167;47.958;21.780;2023-01-29T07:46:16;21.73;;;10.70;;
63975;SDS011;50167;47.958;21.780;2023-01-29T07:48:42;67.17;;;31.70;;
63975;SDS011;50167;47.958;21.780;2023-01-29T07:51:09;25.87;;;12.33;;
63975;SDS011;50167;47.958;21.780;2023-01-29T07:53:35;159.60;;;69.73;;
63975;SDS011;50167;47.958;21.780;2023-01-29T07:56:01;73.83;;;31.30;;
63975;SDS011;50167;47.958;21.780;2023-01-29T07:58:28;62.43;;;27.03;;
63975;SDS011;50167;47.958;21.780;2023-01-29T08:00:54;15.60;;;7.83;;
63975;SDS011;50167;47.958;21.780;2023-01-29T08:03:20;13.17;;;7.00;;
63975;SDS011;50167;47.958;21.780;2023-01-29T08:05:46;16.93;;;8.10;;
63975;SDS011;50167;47.958;21.780;2023-01-29T08:08:13;18.67;;;9.00;;
63975;SDS011;50167;47.958;21.780;2023-01-29T08:10:39;13.53;;;7.23;;
63975;SDS011;50167;47.958;21.780;2023-01-29T08:13:06;9.53;;;4.83;;
63975;SDS011;50167;47.958;21.780;2023-01-29T08:15:33;14.63;;;7.43;;
63975;SDS011;50167;47.958;21.780;2023-01-29T08:18:00;12.37;;;6.93;;
63975;SDS011;50167;47.958;21.780;2023-01-29T08:20:28;18.10;;;10.97;;
63975;SDS011;50167;47.958;21.780;2023-01-29T08:22:58;10.30;;;6.23;;
63975;SDS011;50167;47.958;21.780;2023-01-29T08:25:34;12.83;;;5.83;;
63975;SDS011;50167;47.958;21.780;2023-01-29T08:28:00;14.73;;;7.60;;
63975;SDS011;50167;47.958;21.780;2023-01-29T08:30:28;14.00;;;7.93;;
63975;SDS011;50167;47.958;21.780;2023-01-29T08:32:56;15.03;;;8.20;;
63975;SDS011;50167;47.958;21.780;2023-01-29T08:35:23;18.20;;;9.07;;
63975;SDS011;50167;47.958;21.780;2023-01-29T08:40:26;20.00;;;9.60;;
63975;SDS011;50167;47.958;21.780;2023-01-29T08:42:59;14.73;;;7.17;;
63975;SDS011;50167;47.958;21.780;2023-01-29T08:45:34;13.57;;;7.43;;
63975;SDS011;50167;47.958;21.780;2023-01-29T08:48:04;10.03;;;5.83;;
63975;SDS011;50167;47.958;21.780;2023-01-29T08:50:30;14.50;;;7.73;;
63975;SDS011;50167;47.958;21.780;2023-01-29T08:53:00;14.07;;;6.87;;
63975;SDS011;50167;47.958;21.780;2023-01-29T08:55:38;15.03;;;7.87;;
63975;SDS011;50167;47.958;21.780;2023-01-29T08:58:11;11.43;;;6.33;;
63975;SDS011;50167;47.958;21.780;2023-01-29T09:00:37;16.70;;;9.50;;
63975;SDS011;50167;47.958;21.780;2023-01-29T09:03:03;23.30;;;12.03;;
63975;SDS011;50167;47.958;21.780;2023-01-29T09:05:33;29.90;;;14.97;;
63975;SDS011;50167;47.958;21.780;2023-01-29T09:08:00;21.20;;;11.50;;
63975;SDS011;50167;47.958;21.780;2023-01-29T09:10:26;13.33;;;7.30;;
63975;SDS011;50167;47.958;21.780;2023-01-29T09:12:53;28.60;;;16.73;;
63975;SDS011;50167;47.958;21.780;2023-01-29T09:15:19;29.03;;;17.37;;
63975;SDS011;50167;47.958;21.780;2023-01-29T09:17:45;18.23;;;10.40;;
63975;SDS011;50167;47.958;21.780;2023-01-29T09:20:13;17.57;;;8.67;;
63975;SDS011;50167;47.958;21.780;2023-01-29T09:22:40;25.97;;;11.03;;
63975;SDS011;50167;47.958;21.780;2023-01-29T09:25:07;13.57;;;7.87;;
63975;SDS011;50167;47.958;21.780;2023-01-29T09:27:33;13.87;;;7.83;;
63975;SDS011;50167;47.958;21.780;2023-01-29T09:30:00;12.00;;;7.20;;
63975;SDS011;50167;47.958;21.780;2023-01-29T09:32:26;13.93;;;6.70;;
63975;SDS011;50167;47.958;21.780;2023-01-29T09:34:54;13.77;;;7.77;;
63975;SDS011;50167;47.958;21.780;2023-01-29T09:37:21;12.47;;;6.57;;
63975;SDS011;50167;47.958;21.780;2023-01-29T09:39:48;12.00;;;6.50;;
63975;SDS011;50167;47.958;21.780;2023-01-29T09:47:41;13.83;;;7.03;;
63975;SDS011;50167;47.958;21.780;2023-01-29T09:53:15;15.77;;;9.00;;
63975;SDS011;50167;47.958;21.780;2023-01-29T09:55:55;8.87;;;5.53;;
63975;SDS011;50167;47.958;21.780;2023-01-29T10:00:55;16.30;;;8.93;;
63975;SDS011;50167;47.958;21.780;2023-01-29T10:06:20;23.13;;;12.60;;
63975;SDS011;50167;47.958;21.780;2023-01-29T10:08:55;12.03;;;6.90;;
63975;SDS011;50167;47.958;21.780;2023-01-29T10:14:46;13.40;;;8.57;;
63975;SDS011;50167;47.958;21.780;2023-01-29T10:20:28;13.50;;;7.10;;
63975;SDS011;50167;47.958;21.780;2023-01-29T10:23:32;15.80;;;7.10;;
63975;SDS011;50167;47.958;21.780;2023-01-29T10:26:03;12.07;;;7.35;;
63975;SDS011;50167;47.958;21.780;2023-01-29T10:28:37;11.00;;;6.10;;
63975;SDS011;50167;47.958;21.780;2023-01-29T10:31:05;11.63;;;7.33;;
63975;SDS011;50167;47.958;21.780;2023-01-29T10:33:56;11.83;;;6.40;;
63975;SDS011;50167;47.958;21.780;2023-01-29T10:39:18;12.53;;;7.30;;
63975;SDS011;50167;47.958;21.780;2023-01-29T10:50:52;8.80;;;5.07;;
63975;SDS011;50167;47.958;21.780;2023-01-29T10:53:51;10.70;;;5.57;;
63975;SDS011;50167;47.958;21.780;2023-01-29T10:56:55;9.77;;;5.63;;
63975;SDS011;50167;47.958;21.780;2023-01-29T11:02:14;10.32;;;4.97;;
63975;SDS011;50167;47.958;21.780;2023-01-29T11:04:44;11.07;;;5.33;;
63975;SDS011;50167;47.958;21.780;2023-01-29T11:07:11;11.53;;;5.80;;
63975;SDS011;50167;47.958;21.780;2023-01-29T11:09:41;12.60;;;6.73;;
63975;SDS011;50167;47.958;21.780;2023-01-29T11:12:24;13.57;;;6.77;;
63975;SDS011;50167;47.958;21.780;2023-01-29T11:14:55;10.23;;;5.70;;
63975;SDS011;50167;47.958;21.780;2023-01-29T11:17:28;10.63;;;5.97;;
63975;SDS011;50167;47.958;21.780;2023-01-29T11:19:54;15.93;;;8.60;;
63975;SDS011;50167;47.958;21.780;2023-01-29T11:22:21;8.43;;;4.80;;
63975;SDS011;50167;47.958;21.780;2023-01-29T11:27:58;13.80;;;7.43;;
63975;SDS011;50167;47.958;21.780;2023-01-29T11:30:39;7.93;;;5.57;;
63975;SDS011;50167;47.958;21.780;2023-01-29T11:35:45;10.25;;;5.80;;
63975;SDS011;50167;47.958;21.780;2023-01-29T11:38:21;13.23;;;8.10;;
63975;SDS011;50167;47.958;21.780;2023-01-29T11:41:06;12.27;;;7.03;;
63975;SDS011;50167;47.958;21.780;2023-01-29T11:43:43;13.73;;;8.53;;
63975;SDS011;50167;47.958;21.780;2023-01-29T11:46:12;11.57;;;7.07;;
63975;SDS011;50167;47.958;21.780;2023-01-29T11:48:44;13.00;;;7.47;;
63975;SDS011;50167;47.958;21.780;2023-01-29T11:51:26;16.67;;;9.17;;
63975;SDS011;50167;47.958;21.780;2023-01-29T11:53:53;15.30;;;10.13;;
63975;SDS011;50167;47.958;21.780;2023-01-29T11:58:58;16.07;;;10.23;;
63975;SDS011;50167;47.958;21.780;2023-01-29T12:01:32;11.13;;;7.10;;
63975;SDS011;50167;47.958;21.780;2023-01-29T12:03:58;23.70;;;15.50;;
63975;SDS011;50167;47.958;21.780;2023-01-29T12:09:06;15.83;;;10.77;;
63975;SDS011;50167;47.958;21.780;2023-01-29T12:11:37;18.47;;;11.20;;
63975;SDS011;50167;47.958;21.780;2023-01-29T12:14:04;15.57;;;9.57;;
63975;SDS011;50167;47.958;21.780;2023-01-29T12:25:06;14.07;;;9.23;;
63975;SDS011;50167;47.958;21.780;2023-01-29T12:37:08;16.07;;;9.57;;
63975;SDS011;50167;47.958;21.780;2023-01-29T12:39:37;20.70;;;12.43;;
63975;SDS011;50167;47.958;21.780;2023-01-29T12:42:04;12.13;;;7.10;;
63975;SDS011;50167;47.958;21.780;2023-01-29T12:44:44;15.93;;;9.30;;
63975;SDS011;50167;47.958;21.780;2023-01-29T12:47:51;17.30;;;10.70;;
63975;SDS011;50167;47.958;21.780;2023-01-29T12:50:49;13.67;;;7.93;;
63975;SDS011;50167;47.958;21.780;2023-01-29T12:53:04;15.73;;;8.63;;
63975;SDS011;50167;47.958;21.780;2023-01-29T12:55:42;16.52;;;9.58;;
63975;SDS011;50167;47.958;21.780;2023-01-29T13:01:28;18.03;;;9.77;;
63975;SDS011;50167;47.958;21.780;2023-01-29T13:04:10;17.77;;;8.80;;
63975;SDS011;50167;47.958;21.780;2023-01-29T13:07:13;14.20;;;8.57;;
63975;SDS011;50167;47.958;21.780;2023-01-29T13:09:45;45.50;;;21.60;;
63975;SDS011;50167;47.958;21.780;2023-01-29T13:12:18;41.83;;;18.40;;
63975;SDS011;50167;47.958;21.780;2023-01-29T13:14:55;34.37;;;14.67;;
63975;SDS011;50167;47.958;21.780;2023-01-29T13:17:47;20.73;;;10.57;;
63975;SDS011;50167;47.958;21.780;2023-01-29T13:20:25;14.28;;;8.13;;
63975;SDS011;50167;47.958;21.780;2023-01-29T13:22:53;26.77;;;14.03;;
63975;SDS011;50167;47.958;21.780;2023-01-29T13:25:23;18.40;;;11.33;;
63975;SDS011;50167;47.958;21.780;2023-01-29T13:27:50;13.83;;;8.70;;
63975;SDS011;50167;47.958;21.780;2023-01-29T13:32:59;18.57;;;10.10;;
63975;SDS011;50167;47.958;21.780;2023-01-29T13:35:35;16.43;;;9.30;;
63975;SDS011;50167;47.958;21.780;2023-01-29T13:38:03;18.10;;;9.67;;
63975;SDS011;50167;47.958;21.780;2023-01-29T13:40:32;18.47;;;9.60;;
63975;SDS011;50167;47.958;21.780;2023-01-29T13:42:59;30.10;;;16.23;;
63975;SDS011;50167;47.958;21.780;2023-01-29T13:45:41;74.47;;;35.77;;
63975;SDS011;50167;47.958;21.780;2023-01-29T13:48:16;42.23;;;21.90;;
63975;SDS011;50167;47.958;21.780;2023-01-29T13:51:00;33.50;;;19.13;;
63975;SDS011;50167;47.958;21.780;2023-01-29T13:53:37;24.13;;;12.20;;
63975;SDS011;50167;47.958;21.780;2023-01-29T13:59:01;28.73;;;17.50;;
63975;SDS011;50167;47.958;21.780;2023-01-29T14:06:54;35.60;;;18.43;;
63975;SDS011;50167;47.958;21.780;2023-01-29T14:12:30;41.80;;;21.60;;
63975;SDS011;50167;47.958;21.780;2023-01-29T14:15:00;27.97;;;14.47;;
63975;SDS011;50167;47.958;21.780;2023-01-29T14:17:28;26.87;;;14.73;;
63975;SDS011;50167;47.958;21.780;2023-01-29T14:20:01;22.70;;;12.87;;
63975;SDS011;50167;47.958;21.780;2023-01-29T14:22:41;20.60;;;12.23;;
63975;SDS011;50167;47.958;21.780;2023-01-29T14:25:14;28.10;;;15.17;;
63975;SDS011;50167;47.958;21.780;2023-01-29T14:27:39;23.57;;;12.90;;
63975;SDS011;50167;47.958;21.780;2023-01-29T14:30:15;38.57;;;22.23;;
63975;SDS011;50167;47.958;21.780;2023-01-29T14:32:48;25.88;;;15.18;;
63975;SDS011;50167;47.958;21.780;2023-01-29T14:37:50;30.53;;;17.63;;
63975;SDS011;50167;47.958;21.780;2023-01-29T14:40:25;22.80;;;12.23;;
63975;SDS011;50167;47.958;21.780;2023-01-29T14:45:31;28.00;;;16.93;;
63975;SDS011;50167;47.958;21.780;2023-01-29T14:50:57;38.00;;;22.10;;
63975;SDS011;50167;47.958;21.780;2023-01-29T14:53:39;29.20;;;16.37;;
63975;SDS011;50167;47.958;21.780;2023-01-29T15:01:57;24.35;;;13.90;;
63975;SDS011;50167;47.958;21.780;2023-01-29T15:04:28;24.87;;;13.93;;
63975;SDS011;50167;47.958;21.780;2023-01-29T15:07:06;24.50;;;15.07;;
63975;SDS011;50167;47.958;21.780;2023-01-29T15:09:52;27.93;;;14.87;;
63975;SDS011;50167;47.958;21.780;2023-01-29T15:12:29;23.93;;;13.97;;
63975;SDS011;50167;47.958;21.780;2023-01-29T15:20:36;29.12;;;14.83;;
63975;SDS011;50167;47.958;21.780;2023-01-29T15:25:57;27.40;;;14.30;;
63975;SDS011;50167;47.958;21.780;2023-01-29T15:30:59;23.87;;;13.60;;
63975;SDS011;50167;47.958;21.780;2023-01-29T15:33:32;24.20;;;14.63;;
63975;SDS011;50167;47.958;21.780;2023-01-29T15:36:03;29.05;;;14.75;;
63975;SDS011;50167;47.958;21.780;2023-01-29T15:38:31;26.50;;;15.70;;
63975;SDS011;50167;47.958;21.780;2023-01-29T15:40:58;23.03;;;14.30;;
63975;SDS011;50167;47.958;21.780;2023-01-29T15:43:28;26.62;;;15.23;;
63975;SDS011;50167;47.958;21.780;2023-01-29T15:45:58;27.17;;;15.67;;
63975;SDS011;50167;47.958;21.780;2023-01-29T15:48:34;30.53;;;15.90;;
63975;SDS011;50167;47.958;21.780;2023-01-29T15:51:04;28.10;;;15.53;;
63975;SDS011;50167;47.958;21.780;2023-01-29T15:53:37;29.10;;;17.87;;
63975;SDS011;50167;47.958;21.780;2023-01-29T15:56:23;23.23;;;14.33;;
63975;SDS011;50167;47.958;21.780;2023-01-29T15:58:56;24.30;;;14.73;;
63975;SDS011;50167;47.958;21.780;2023-01-29T16:01:26;21.73;;;12.60;;
63975;SDS011;50167;47.958;21.780;2023-01-29T16:03:53;21.50;;;12.73;;
63975;SDS011;50167;47.958;21.780;2023-01-29T16:06:22;23.60;;;13.77;;
63975;SDS011;50167;47.958;21.780;2023-01-29T16:08:50;25.40;;;14.77;;
63975;SDS011;50167;47.958;21.780;2023-01-29T16:11:18;29.40;;;14.63;;
63975;SDS011;50167;47.958;21.780;2023-01-29T16:13:46;29.10;;;15.57;;
63975;SDS011;50167;47.958;21.780;2023-01-29T16:18:52;40.17;;;18.37;;
63975;SDS011;50167;47.958;21.780;2023-01-29T16:21:27;36.80;;;18.27;;
63975;SDS011;50167;47.958;21.780;2023-01-29T16:23:58;36.03;;;20.97;;
63975;SDS011;50167;47.958;21.780;2023-01-29T16:26:30;30.27;;;17.32;;
63975;SDS011;50167;47.958;21.780;2023-01-29T16:29:06;45.50;;;22.47;;
63975;SDS011;50167;47.958;21.780;2023-01-29T16:31:31;37.50;;;20.73;;
63975;SDS011;50167;47.958;21.780;2023-01-29T16:33:58;44.80;;;21.77;;
63975;SDS011;50167;47.958;21.780;2023-01-29T16:36:26;41.10;;;21.20;;
63975;SDS011;50167;47.958;21.780;2023-01-29T16:38:59;52.17;;;22.07;;
63975;SDS011;50167;47.958;21.780;2023-01-29T16:41:30;38.03;;;19.87;;
63975;SDS011;50167;47.958;21.780;2023-01-29T16:44:02;32.90;;;18.73;;
63975;SDS011;50167;47.958;21.780;2023-01-29T16:46:46;71.20;;;34.83;;
63975;SDS011;50167;47.958;21.780;2023-01-29T16:57:40;98.47;;;43.33;;
63975;SDS011;50167;47.958;21.780;2023-01-29T17:00:17;128.73;;;58.00;;
63975;SDS011;50167;47.958;21.780;2023-01-29T17:02:49;86.90;;;40.90;;
63975;SDS011;50167;47.958;21.780;2023-01-29T17:05:25;69.32;;;33.05;;
63975;SDS011;50167;47.958;21.780;2023-01-29T17:07:54;80.40;;;36.80;;
63975;SDS011;50167;47.958;21.780;2023-01-29T17:10:23;80.07;;;40.93;;
63975;SDS011;50167;47.958;21.780;2023-01-29T17:13:07;80.67;;;38.93;;
63975;SDS011;50167;47.958;21.780;2023-01-29T17:18:21;63.40;;;30.83;;
63975;SDS011;50167;47.958;21.780;2023-01-29T17:20:45;55.87;;;30.03;;
63975;SDS011;50167;47.958;21.780;2023-01-29T17:23:13;49.27;;;27.57;;
63975;SDS011;50167;47.958;21.780;2023-01-29T17:25:39;49.57;;;27.53;;
63975;SDS011;50167;47.958;21.780;2023-01-29T17:28:06;45.70;;;27.67;;
63975;SDS011;50167;47.958;21.780;2023-01-29T17:30:34;54.67;;;29.40;;
63975;SDS011;50167;47.958;21.780;2023-01-29T17:33:19;47.90;;;27.33;;
63975;SDS011;50167;47.958;21.780;2023-01-29T17:35:38;54.13;;;30.90;;
63975;SDS011;50167;47.958;21.780;2023-01-29T17:38:12;51.92;;;27.82;;
63975;SDS011;50167;47.958;21.780;2023-01-29T17:40:41;70.87;;;35.33;;